Time;durP1;ratioP1;P1;durP2;ratioP2;P2;SDS_P1;SDS_P2;PMS_P1;PMS_P2;Temp;Humidity;BMP_temperature;BMP_pressure;BME280_temperature;BME280_humidity;BME280_pressure;Samples;Min_cycle;Max_cycle;Signal;HPM_P1;HPM_P2
2021/01/18 00:01:52;;;;;;;19.52;13.25;;;;;;;;;;5070973;28;20693;-42
2021/01/18 00:04:17;;;;;;;17.38;14.10;;;;;;;;;;5065784;28;20181;-42
2021/01/18 00:06:42;;;;;;;18.93;13.90;;;;;;;;;;5067026;28;20633;-42
2021/01/18 00:09:07;;;;;;;19.40;13.82;;;;;;;;;;5070854;28;20603;-42
2021/01/18 00:11:32;;;;;;;18.90;13.77;;;;;;;;;;5066581;28;20253;-42
2021/01/18 00:13:58;;;;;;;18.37;13.27;;;;;;;;;;5047393;28;20217;-43
2021/01/18 00:16:23;;;;;;;16.35;13.82;;;;;;;;;;5063563;28;20608;-42
2021/01/18 00:18:48;;;;;;;17.23;14.30;;;;;;;;;;5067867;28;20549;-42
2021/01/18 00:21:14;;;;;;;15.77;13.73;;;;;;;;;;5067057;28;20578;-42
2021/01/18 00:23:39;;;;;;;18.30;14.60;;;;;;;;;;5067617;28;20260;-42
2021/01/18 00:26:05;;;;;;;17.50;14.37;;;;;;;;;;5065680;28;20182;-42
2021/01/18 00:28:31;;;;;;;15.37;13.20;;;;;;;;;;5063307;28;20498;-42
2021/01/18 00:30:57;;;;;;;19.80;13.47;;;;;;;;;;5071022;28;20179;-42
2021/01/18 00:33:22;;;;;;;19.97;13.87;;;;;;;;;;5073303;28;20623;-41
2021/01/18 00:35:47;;;;;;;16.35;13.90;;;;;;;;;;5070165;28;20307;-42
2021/01/18 00:38:12;;;;;;;17.13;13.13;;;;;;;;;;5061254;28;20218;-42
2021/01/18 00:40:37;;;;;;;18.98;14.10;;;;;;;;;;5075577;28;20613;-40
2021/01/18 00:43:02;;;;;;;17.83;13.25;;;;;;;;;;5072850;28;20166;-42
2021/01/18 00:45:28;;;;;;;15.45;12.15;;;;;;;;;;5069200;28;20214;-41
2021/01/18 00:47:56;;;;;;;16.77;12.57;;;;;;;;;;5072184;28;20680;-41
2021/01/18 00:50:22;;;;;;;16.33;12.47;;;;;;;;;;5064344;28;20198;-41
2021/01/18 00:52:49;;;;;;;17.27;12.90;;;;;;;;;;5073882;28;20607;-42
2021/01/18 00:55:16;;;;;;;15.93;12.77;;;;;;;;;;5075603;28;20681;-41
2021/01/18 00:57:41;;;;;;;14.53;11.53;;;;;;;;;;5075801;28;20608;-41
2021/01/18 01:00:14;;;;;;;15.90;11.80;;;;;;;;;;5065265;28;20606;-41
2021/01/18 01:02:39;;;;;;;19.70;12.17;;;;;;;;;;5069730;28;20833;-42
2021/01/18 01:05:05;;;;;;;16.90;11.57;;;;;;;;;;5069055;28;20769;-41
2021/01/18 01:07:30;;;;;;;15.57;13.00;;;;;;;;;;5074724;28;20189;-42
2021/01/18 01:09:55;;;;;;;17.33;13.00;;;;;;;;;;5060538;28;20275;-42
2021/01/18 01:12:21;;;;;;;14.90;12.02;;;;;;;;;;5079343;28;20260;-42
2021/01/18 01:14:47;;;;;;;16.10;12.10;;;;;;;;;;5066979;28;20226;-42
2021/01/18 01:17:12;;;;;;;15.53;11.47;;;;;;;;;;5073639;28;20179;-42
2021/01/18 01:19:37;;;;;;;12.50;10.77;;;;;;;;;;5068766;28;20684;-42
2021/01/18 01:22:03;;;;;;;13.30;11.15;;;;;;;;;;5070092;28;20227;-41
2021/01/18 01:24:28;;;;;;;18.02;12.90;;;;;;;;;;5074785;28;20240;-42
2021/01/18 01:26:53;;;;;;;15.48;11.25;;;;;;;;;;5065985;28;20170;-42
2021/01/18 01:29:18;;;;;;;14.93;11.30;;;;;;;;;;5075007;28;20207;-42
2021/01/18 01:31:43;;;;;;;17.17;12.25;;;;;;;;;;5076694;28;20172;-43
2021/01/18 01:34:08;;;;;;;19.83;12.00;;;;;;;;;;5066588;28;20174;-42
2021/01/18 01:36:40;;;;;;;14.53;11.53;;;;;;;;;;5072841;28;20173;-42
2021/01/18 01:39:05;;;;;;;15.30;11.07;;;;;;;;;;5065344;28;20174;-42
2021/01/18 01:41:30;;;;;;;13.82;11.50;;;;;;;;;;5075175;28;20658;-42
2021/01/18 01:43:55;;;;;;;16.83;12.02;;;;;;;;;;5070661;28;20177;-42
2021/01/18 01:46:20;;;;;;;15.25;11.95;;;;;;;;;;5069669;28;20164;-42
2021/01/18 01:48:45;;;;;;;15.60;11.93;;;;;;;;;;5064137;28;20227;-41
2021/01/18 01:51:11;;;;;;;16.95;12.15;;;;;;;;;;5070165;28;20189;-42
2021/01/18 01:53:36;;;;;;;16.13;11.10;;;;;;;;;;5070940;28;20186;-42
2021/01/18 01:56:01;;;;;;;14.40;11.00;;;;;;;;;;5068684;28;20169;-43
2021/01/18 01:58:27;;;;;;;12.63;10.47;;;;;;;;;;5069847;28;20483;-42
2021/01/18 02:00:53;;;;;;;14.63;11.40;;;;;;;;;;5072900;28;20286;-42
2021/01/18 02:03:37;;;;;;;14.07;11.17;;;;;;;;;;5063783;28;20675;-42
2021/01/18 02:06:02;;;;;;;18.90;11.47;;;;;;;;;;5074030;28;20966;-42
2021/01/18 02:08:27;;;;;;;15.57;11.38;;;;;;;;;;5063670;28;20794;-42
2021/01/18 02:10:53;;;;;;;16.27;11.00;;;;;;;;;;5071528;28;20178;-42
2021/01/18 02:13:18;;;;;;;16.20;11.50;;;;;;;;;;5071898;28;20221;-43
2021/01/18 02:15:46;;;;;;;15.30;11.90;;;;;;;;;;5065302;28;20181;-43
2021/01/18 02:18:30;;;;;;;15.10;11.30;;;;;;;;;;5069992;28;20173;-42
2021/01/18 02:21:00;;;;;;;16.53;11.43;;;;;;;;;;5067471;28;20652;-42
2021/01/18 02:23:35;;;;;;;14.53;11.03;;;;;;;;;;5070581;28;20598;-42
2021/01/18 02:26:05;;;;;;;14.70;11.77;;;;;;;;;;5071058;28;20722;-43
2021/01/18 02:28:30;;;;;;;15.07;11.73;;;;;;;;;;5062986;28;21159;-42
2021/01/18 02:30:55;;;;;;;13.45;11.88;;;;;;;;;;5066481;28;21213;-42
2021/01/18 02:33:27;;;;;;;15.57;11.63;;;;;;;;;;5073650;28;20200;-42
2021/01/18 02:36:11;;;;;;;14.13;11.30;;;;;;;;;;5078425;28;20205;-42
2021/01/18 02:38:54;;;;;;;15.90;12.40;;;;;;;;;;5077816;28;20611;-42
2021/01/18 02:41:41;;;;;;;12.57;10.27;;;;;;;;;;5065956;28;20702;-42
2021/01/18 02:44:09;;;;;;;15.03;11.47;;;;;;;;;;5073840;28;20695;-42
2021/01/18 02:46:35;;;;;;;16.37;11.37;;;;;;;;;;5074890;28;20973;-42
2021/01/18 02:49:02;;;;;;;12.73;10.87;;;;;;;;;;5072500;28;21001;-42
2021/01/18 02:51:28;;;;;;;16.60;11.17;;;;;;;;;;5066016;28;20844;-42
2021/01/18 02:53:54;;;;;;;19.10;13.17;;;;;;;;;;5064645;28;20634;-42
2021/01/18 02:56:21;;;;;;;13.93;11.17;;;;;;;;;;5071785;28;20186;-43
2021/01/18 02:58:47;;;;;;;15.17;11.60;;;;;;;;;;5059292;28;20706;-41
2021/01/18 03:01:20;;;;;;;17.23;12.30;;;;;;;;;;5061698;28;21021;-41
2021/01/18 03:03:51;;;;;;;15.83;10.90;;;;;;;;;;5072305;28;20597;-41
2021/01/18 03:06:20;;;;;;;20.83;12.80;;;;;;;;;;5073195;28;20685;-42
2021/01/18 03:08:55;;;;;;;16.40;12.20;;;;;;;;;;5063192;28;20593;-42
2021/01/18 03:11:26;;;;;;;14.27;11.70;;;;;;;;;;5073263;28;21301;-41
2021/01/18 03:13:54;;;;;;;16.80;10.47;;;;;;;;;;5064303;28;20632;-42
2021/01/18 03:16:21;;;;;;;15.27;11.17;;;;;;;;;;5073651;28;21000;-42
2021/01/18 03:18:47;;;;;;;15.60;12.40;;;;;;;;;;5076630;28;20703;-41
2021/01/18 03:21:12;;;;;;;14.30;10.83;;;;;;;;;;5073912;28;20716;-42
2021/01/18 03:23:44;;;;;;;17.43;12.30;;;;;;;;;;5063042;28;21198;-41
2021/01/18 03:26:10;;;;;;;15.60;11.60;;;;;;;;;;5073338;28;20194;-42
2021/01/18 03:28:35;;;;;;;18.53;12.93;;;;;;;;;;5068645;28;20762;-42
2021/01/18 03:31:01;;;;;;;15.50;11.23;;;;;;;;;;5077106;28;20174;-43
2021/01/18 03:33:26;;;;;;;16.83;11.70;;;;;;;;;;5063691;28;20547;-42
2021/01/18 03:35:55;;;;;;;20.73;11.87;;;;;;;;;;5065019;28;20181;-42
2021/01/18 03:38:20;;;;;;;20.20;12.03;;;;;;;;;;5069279;28;20455;-42
2021/01/18 03:40:46;;;;;;;16.43;12.97;;;;;;;;;;5065053;28;20667;-42
2021/01/18 03:43:11;;;;;;;16.33;11.60;;;;;;;;;;5064836;28;20167;-42
2021/01/18 03:45:38;;;;;;;15.70;11.77;;;;;;;;;;5064016;28;20174;-43
2021/01/18 03:48:03;;;;;;;17.23;12.63;;;;;;;;;;5063431;28;20174;-42
2021/01/18 03:50:29;;;;;;;15.47;11.70;;;;;;;;;;5064559;28;20607;-42
2021/01/18 03:52:54;;;;;;;15.27;11.60;;;;;;;;;;5065065;28;20177;-42
2021/01/18 03:55:19;;;;;;;18.37;12.70;;;;;;;;;;5070573;28;20159;-42
2021/01/18 03:57:46;;;;;;;15.27;12.40;;;;;;;;;;5053504;28;20543;-42
2021/01/18 04:00:11;;;;;;;17.83;12.77;;;;;;;;;;5068292;28;20167;-43
2021/01/18 04:02:37;;;;;;;16.73;12.10;;;;;;;;;;5067279;28;20709;-43
2021/01/18 04:05:03;;;;;;;13.43;11.17;;;;;;;;;;5074014;28;20173;-42
2021/01/18 04:07:28;;;;;;;16.13;12.60;;;;;;;;;;5065608;28;21781;-42
2021/01/18 04:09:53;;;;;;;15.47;11.97;;;;;;;;;;5074734;28;20170;-43
2021/01/18 04:12:18;;;;;;;18.45;12.05;;;;;;;;;;5076169;28;20254;-43
2021/01/18 04:14:44;;;;;;;16.97;12.30;;;;;;;;;;5074194;28;20695;-43
2021/01/18 04:17:09;;;;;;;13.43;11.90;;;;;;;;;;5076765;28;20603;-43
2021/01/18 04:19:34;;;;;;;15.67;12.77;;;;;;;;;;5074884;28;20179;-43
2021/01/18 04:22:03;;;;;;;19.53;12.70;;;;;;;;;;5076075;28;20210;-42
2021/01/18 04:24:28;;;;;;;15.17;11.50;;;;;;;;;;5080502;28;20611;-43
2021/01/18 04:26:53;;;;;;;16.75;12.40;;;;;;;;;;5065602;28;20995;-43
2021/01/18 04:29:19;;;;;;;15.68;12.57;;;;;;;;;;5068605;28;20611;-42
2021/01/18 04:31:44;;;;;;;16.00;11.93;;;;;;;;;;5075035;28;20169;-42
2021/01/18 04:34:09;;;;;;;17.30;12.53;;;;;;;;;;5063386;28;20228;-43
2021/01/18 04:36:36;;;;;;;17.80;12.57;;;;;;;;;;5075394;28;20190;-43
2021/01/18 04:39:02;;;;;;;17.30;13.07;;;;;;;;;;5073280;28;20172;-43
2021/01/18 04:41:27;;;;;;;19.47;12.50;;;;;;;;;;5064925;28;21060;-42
2021/01/18 04:43:53;;;;;;;16.38;12.60;;;;;;;;;;5062244;28;20195;-42
2021/01/18 04:46:18;;;;;;;19.73;12.77;;;;;;;;;;5071766;28;20170;-43
2021/01/18 04:48:44;;;;;;;21.57;13.37;;;;;;;;;;5062214;28;20177;-42
2021/01/18 04:51:14;;;;;;;17.50;13.50;;;;;;;;;;5066523;28;20175;-42
2021/01/18 04:53:39;;;;;;;18.40;13.20;;;;;;;;;;5062199;28;20171;-43
2021/01/18 04:56:22;;;;;;;19.47;12.50;;;;;;;;;;5069767;28;20595;-42
2021/01/18 04:58:48;;;;;;;20.80;13.93;;;;;;;;;;5068861;28;20268;-43
2021/01/18 05:01:15;;;;;;;16.13;12.93;;;;;;;;;;5069829;28;20771;-43
2021/01/18 05:03:43;;;;;;;21.10;13.30;;;;;;;;;;5070365;28;20655;-43
2021/01/18 05:06:12;;;;;;;19.03;14.27;;;;;;;;;;5069039;28;20610;-42
2021/01/18 05:08:45;;;;;;;28.90;15.33;;;;;;;;;;5073566;28;20633;-42
2021/01/18 05:11:13;;;;;;;19.50;15.50;;;;;;;;;;5073547;28;20629;-43
2021/01/18 05:13:38;;;;;;;17.00;13.67;;;;;;;;;;5066864;28;20644;-43
2021/01/18 05:16:06;;;;;;;20.93;15.73;;;;;;;;;;5068831;28;20659;-42
2021/01/18 05:18:32;;;;;;;22.30;14.87;;;;;;;;;;5075940;28;20186;-43
2021/01/18 05:21:02;;;;;;;19.97;14.60;;;;;;;;;;5066643;28;20755;-51
2021/01/18 05:23:27;;;;;;;17.97;13.60;;;;;;;;;;5065148;28;20620;-43
2021/01/18 05:26:12;;;;;;;20.58;15.43;;;;;;;;;;5065762;28;20624;-43
2021/01/18 05:28:41;;;;;;;20.27;14.23;;;;;;;;;;5068809;28;20178;-43
2021/01/18 05:31:10;;;;;;;22.10;16.13;;;;;;;;;;5063607;28;21619;-43
2021/01/18 05:33:38;;;;;;;20.63;14.97;;;;;;;;;;5070751;28;20963;-43
2021/01/18 05:36:04;;;;;;;20.77;15.50;;;;;;;;;;5075011;28;20766;-43
2021/01/18 05:38:29;;;;;;;17.40;12.90;;;;;;;;;;5067039;28;21150;-43
2021/01/18 05:40:58;;;;;;;19.02;14.45;;;;;;;;;;5066331;28;20203;-41
2021/01/18 05:43:31;;;;;;;21.67;14.80;;;;;;;;;;5069875;28;20192;-43
2021/01/18 05:46:01;;;;;;;23.07;15.90;;;;;;;;;;5063400;28;20605;-41
2021/01/18 05:48:27;;;;;;;19.10;14.00;;;;;;;;;;5070292;28;21545;-42
2021/01/18 05:50:56;;;;;;;21.30;15.10;;;;;;;;;;5068775;28;20647;-42
2021/01/18 05:53:24;;;;;;;22.17;15.63;;;;;;;;;;5066029;28;20595;-42
2021/01/18 05:55:49;;;;;;;18.70;14.30;;;;;;;;;;5072983;28;20750;-42
2021/01/18 05:58:27;;;;;;;20.13;15.20;;;;;;;;;;5072656;28;21138;-41
2021/01/18 06:00:53;;;;;;;23.63;16.87;;;;;;;;;;5067440;28;20686;-43
2021/01/18 06:03:19;;;;;;;21.27;15.07;;;;;;;;;;5063578;28;20693;-42
2021/01/18 06:05:47;;;;;;;20.50;16.93;;;;;;;;;;5061658;28;20710;-45
2021/01/18 06:08:16;;;;;;;27.93;18.80;;;;;;;;;;5060414;28;20179;-42
2021/01/18 06:10:43;;;;;;;26.37;17.53;;;;;;;;;;5068226;28;20615;-42
2021/01/18 06:13:24;;;;;;;24.07;16.73;;;;;;;;;;5061904;28;20712;-42
2021/01/18 06:15:52;;;;;;;22.43;15.60;;;;;;;;;;5063671;28;20919;-42
2021/01/18 06:18:17;;;;;;;20.00;15.20;;;;;;;;;;5063052;28;20605;-42
2021/01/18 06:20:43;;;;;;;21.83;15.53;;;;;;;;;;5059689;28;20593;-43
2021/01/18 06:23:08;;;;;;;21.17;15.30;;;;;;;;;;5065961;28;20664;-42
2021/01/18 06:25:39;;;;;;;24.50;17.50;;;;;;;;;;5068028;28;20241;-42
2021/01/18 06:28:23;;;;;;;23.40;16.20;;;;;;;;;;5055924;28;20207;-42
2021/01/18 06:30:53;;;;;;;19.17;15.37;;;;;;;;;;5054317;28;20604;-42
2021/01/18 06:33:18;;;;;;;21.30;15.80;;;;;;;;;;5062315;28;20691;-42
2021/01/18 06:35:43;;;;;;;21.42;15.20;;;;;;;;;;5070256;28;20644;-42
2021/01/18 06:38:08;;;;;;;23.35;16.15;;;;;;;;;;5070957;28;20190;-42
2021/01/18 06:40:35;;;;;;;26.03;17.90;;;;;;;;;;5057888;28;20171;-42
2021/01/18 06:43:01;;;;;;;25.67;17.10;;;;;;;;;;5061807;28;20711;-42
2021/01/18 06:45:30;;;;;;;21.30;14.90;;;;;;;;;;5062219;28;20605;-41
2021/01/18 06:47:56;;;;;;;22.33;16.53;;;;;;;;;;5061459;28;20194;-41
2021/01/18 06:50:22;;;;;;;21.70;17.33;;;;;;;;;;5052988;28;20590;-41
2021/01/18 06:52:54;;;;;;;27.23;16.60;;;;;;;;;;5067132;28;20189;-41
2021/01/18 06:55:24;;;;;;;26.07;18.67;;;;;;;;;;5054638;28;20174;-41
2021/01/18 06:57:52;;;;;;;27.20;17.50;;;;;;;;;;5063977;28;20613;-42
2021/01/18 07:00:18;;;;;;;22.33;17.33;;;;;;;;;;5059884;28;20622;-41
2021/01/18 07:02:56;;;;;;;22.73;16.87;;;;;;;;;;5081457;28;20651;-42
2021/01/18 07:05:32;;;;;;;23.67;17.70;;;;;;;;;;5076700;28;20762;-43
2021/01/18 07:08:01;;;;;;;22.13;17.70;;;;;;;;;;5084507;28;20607;-43
2021/01/18 07:10:30;;;;;;;23.60;17.60;;;;;;;;;;5079146;28;20642;-43
2021/01/18 07:12:57;;;;;;;23.37;17.00;;;;;;;;;;5071745;28;20703;-43
2021/01/18 07:15:23;;;;;;;25.17;16.83;;;;;;;;;;5067308;28;20702;-43
2021/01/18 07:17:55;;;;;;;23.37;16.97;;;;;;;;;;5070722;28;20642;-42
2021/01/18 07:20:21;;;;;;;21.03;18.03;;;;;;;;;;5064827;28;20650;-42
2021/01/18 07:23:02;;;;;;;23.73;17.23;;;;;;;;;;5073757;28;20753;-43
2021/01/18 07:25:33;;;;;;;23.10;17.03;;;;;;;;;;5076745;28;20624;-43
2021/01/18 07:28:00;;;;;;;22.90;17.93;;;;;;;;;;5071786;28;20609;-42
2021/01/18 07:30:29;;;;;;;23.77;16.60;;;;;;;;;;5074604;28;20608;-44
2021/01/18 07:33:03;;;;;;;22.13;18.23;;;;;;;;;;5069285;28;20588;-43
2021/01/18 07:35:28;;;;;;;26.30;18.30;;;;;;;;;;5068776;28;20675;-43
2021/01/18 07:38:08;;;;;;;23.38;17.92;;;;;;;;;;5068181;28;20624;-43
2021/01/18 07:40:33;;;;;;;26.30;18.40;;;;;;;;;;5066795;28;20369;-43
2021/01/18 07:42:58;;;;;;;22.77;17.93;;;;;;;;;;5067584;28;21211;-42
2021/01/18 07:45:24;;;;;;;21.80;16.60;;;;;;;;;;5069283;28;20660;-42
2021/01/18 07:47:55;;;;;;;22.70;17.47;;;;;;;;;;5066156;28;20179;-42
2021/01/18 07:50:30;;;;;;;23.63;18.23;;;;;;;;;;5058229;28;20191;-43
2021/01/18 07:52:58;;;;;;;42.07;23.20;;;;;;;;;;5068165;28;20616;-43
2021/01/18 07:55:24;;;;;;;62.63;37.70;;;;;;;;;;5067389;28;21198;-42
2021/01/18 07:57:49;;;;;;;82.37;47.40;;;;;;;;;;5067262;28;20605;-44
2021/01/18 08:00:23;;;;;;;101.50;56.23;;;;;;;;;;5065272;28;20645;-42
2021/01/18 08:02:49;;;;;;;99.23;52.10;;;;;;;;;;5068372;28;20207;-43
2021/01/18 08:05:21;;;;;;;79.07;42.30;;;;;;;;;;5066862;28;20979;-42
2021/01/18 08:08:04;;;;;;;49.70;31.47;;;;;;;;;;5066415;28;21458;-43
2021/01/18 08:10:48;;;;;;;37.43;25.03;;;;;;;;;;5061048;28;20609;-43
2021/01/18 08:13:32;;;;;;;32.93;23.00;;;;;;;;;;5074780;28;20653;-43
2021/01/18 08:16:05;;;;;;;33.57;21.57;;;;;;;;;;5067731;28;20620;-43
2021/01/18 08:18:31;;;;;;;28.73;19.77;;;;;;;;;;5068645;28;20862;-43
2021/01/18 08:20:56;;;;;;;29.25;21.30;;;;;;;;;;5065248;28;20730;-44
2021/01/18 08:23:40;;;;;;;45.38;24.23;;;;;;;;;;5061787;28;20669;-45
2021/01/18 08:26:06;;;;;;;56.33;27.30;;;;;;;;;;5064135;28;20206;-42
2021/01/18 08:28:33;;;;;;;55.80;28.20;;;;;;;;;;5061655;28;20605;-42
2021/01/18 08:30:59;;;;;;;40.47;24.30;;;;;;;;;;5058636;28;20186;-44
2021/01/18 08:33:25;;;;;;;45.70;24.65;;;;;;;;;;5063495;28;20620;-42
2021/01/18 08:35:51;;;;;;;46.07;24.33;;;;;;;;;;5064517;28;20203;-41
2021/01/18 08:38:24;;;;;;;35.60;23.00;;;;;;;;;;5064225;28;20593;-42
2021/01/18 08:40:51;;;;;;;33.83;22.40;;;;;;;;;;5061027;28;20605;-42
2021/01/18 08:43:17;;;;;;;36.57;21.60;;;;;;;;;;5068419;28;20606;-42
2021/01/18 08:45:44;;;;;;;27.60;19.50;;;;;;;;;;5066063;28;20618;-43
2021/01/18 08:48:10;;;;;;;27.13;19.60;;;;;;;;;;5065845;28;20613;-42
2021/01/18 08:50:52;;;;;;;24.50;19.90;;;;;;;;;;5066339;28;20648;-43
2021/01/18 08:53:22;;;;;;;28.40;20.10;;;;;;;;;;5068867;28;20597;-43
2021/01/18 08:55:48;;;;;;;23.43;18.80;;;;;;;;;;5069231;28;20604;-43
2021/01/18 08:58:29;;;;;;;25.43;19.77;;;;;;;;;;5068549;28;20604;-43
2021/01/18 09:00:56;;;;;;;27.37;19.30;;;;;;;;;;5070196;28;20614;-43
2021/01/18 09:03:21;;;;;;;24.40;19.50;;;;;;;;;;5072397;28;21077;-43
2021/01/18 09:05:55;;;;;;;25.38;18.95;;;;;;;;;;5071587;28;21286;-42
2021/01/18 09:08:20;;;;;;;23.80;18.80;;;;;;;;;;5072018;28;20193;-42
2021/01/18 09:11:12;;;;;;;28.60;21.23;;;;;;;;;;5068629;28;20609;-42
2021/01/18 09:13:38;;;;;;;27.03;18.97;;;;;;;;;;5067873;28;20303;-42
2021/01/18 09:16:05;;;;;;;26.00;19.50;;;;;;;;;;5071272;28;21128;-41
2021/01/18 09:18:30;;;;;;;23.70;18.60;;;;;;;;;;5072159;28;21024;-42
2021/01/18 09:20:56;;;;;;;26.57;19.30;;;;;;;;;;5068130;28;20655;-42
2021/01/18 09:23:22;;;;;;;24.47;19.40;;;;;;;;;;5071718;28;20215;-42
2021/01/18 09:25:55;;;;;;;29.60;20.13;;;;;;;;;;5070298;28;20684;-42
2021/01/18 09:28:20;;;;;;;25.77;20.00;;;;;;;;;;5068555;28;20262;-42
2021/01/18 09:30:46;;;;;;;26.55;19.25;;;;;;;;;;5067602;28;20637;-42
2021/01/18 09:33:11;;;;;;;31.60;22.30;;;;;;;;;;5071032;28;20217;-42
2021/01/18 09:35:38;;;;;;;25.40;20.27;;;;;;;;;;5070200;28;20275;-42
2021/01/18 09:38:04;;;;;;;28.27;20.00;;;;;;;;;;5068930;28;20171;-43
2021/01/18 09:40:29;;;;;;;26.33;20.43;;;;;;;;;;5069038;28;20609;-42
2021/01/18 09:42:55;;;;;;;30.93;20.67;;;;;;;;;;5070879;28;20656;-43
2021/01/18 09:45:21;;;;;;;29.43;20.50;;;;;;;;;;5063121;28;20251;-41
2021/01/18 09:47:46;;;;;;;27.53;21.97;;;;;;;;;;5070917;28;21069;-43
2021/01/18 09:50:15;;;;;;;29.53;22.60;;;;;;;;;;5066902;28;20171;-41
2021/01/18 09:52:44;;;;;;;29.60;22.27;;;;;;;;;;5070464;28;20199;-43
2021/01/18 09:55:30;;;;;;;28.83;22.47;;;;;;;;;;5068673;28;21158;-42
2021/01/18 09:58:03;;;;;;;27.20;20.77;;;;;;;;;;5067493;28;20710;-42
2021/01/18 10:00:30;;;;;;;30.27;21.90;;;;;;;;;;5064075;28;21228;-42
2021/01/18 10:02:55;;;;;;;27.43;21.03;;;;;;;;;;5066955;28;21010;-42
2021/01/18 10:05:27;;;;;;;32.40;21.37;;;;;;;;;;5069623;28;20684;-42
2021/01/18 10:07:54;;;;;;;29.10;21.00;;;;;;;;;;5068792;28;20171;-42
2021/01/18 10:10:19;;;;;;;28.93;20.87;;;;;;;;;;5064935;28;20613;-42
2021/01/18 10:12:51;;;;;;;27.40;21.87;;;;;;;;;;5069999;28;20663;-42
2021/01/18 10:15:26;;;;;;;29.23;21.80;;;;;;;;;;5069979;28;20248;-42
2021/01/18 10:17:55;;;;;;;29.33;22.17;;;;;;;;;;5068596;28;20631;-42
2021/01/18 10:20:22;;;;;;;28.47;19.83;;;;;;;;;;5067889;28;20715;-43
2021/01/18 10:22:48;;;;;;;25.37;20.67;;;;;;;;;;5069260;28;21027;-43
2021/01/18 10:25:14;;;;;;;26.27;20.23;;;;;;;;;;5069774;28;20626;-42
2021/01/18 10:27:47;;;;;;;29.97;20.37;;;;;;;;;;5068434;28;20730;-43
2021/01/18 10:30:13;;;;;;;27.53;20.63;;;;;;;;;;5066809;28;20226;-43
2021/01/18 10:32:40;;;;;;;26.23;19.73;;;;;;;;;;5069949;28;20621;-43
2021/01/18 10:35:27;;;;;;;28.10;22.20;;;;;;;;;;5070195;28;20597;-43
2021/01/18 10:37:52;;;;;;;29.20;21.03;;;;;;;;;;5070236;28;20675;-42
2021/01/18 10:40:21;;;;;;;30.33;20.30;;;;;;;;;;5066486;28;20772;-43
2021/01/18 10:42:48;;;;;;;27.80;21.90;;;;;;;;;;5058411;28;20257;-42
2021/01/18 10:45:15;;;;;;;33.13;23.83;;;;;;;;;;5069085;28;20606;-42
2021/01/18 10:47:40;;;;;;;29.97;22.17;;;;;;;;;;5067633;28;20586;-42
2021/01/18 10:50:06;;;;;;;28.17;22.48;;;;;;;;;;5068671;28;20680;-43
2021/01/18 10:52:32;;;;;;;27.63;22.33;;;;;;;;;;5073941;28;20188;-44
2021/01/18 10:54:58;;;;;;;27.77;20.97;;;;;;;;;;5069248;28;20604;-42
2021/01/18 10:57:23;;;;;;;29.47;21.77;;;;;;;;;;5069283;28;20710;-43
2021/01/18 11:00:04;;;;;;;27.30;21.50;;;;;;;;;;5067007;28;20179;-42
2021/01/18 11:02:29;;;;;;;30.63;24.37;;;;;;;;;;5068046;28;20242;-42
2021/01/18 11:04:54;;;;;;;31.57;24.50;;;;;;;;;;5066427;28;20613;-42
2021/01/18 11:07:19;;;;;;;27.33;21.90;;;;;;;;;;5068996;28;20539;-43
2021/01/18 11:09:54;;;;;;;29.67;23.20;;;;;;;;;;5068646;28;20207;-43
2021/01/18 11:12:19;;;;;;;26.37;21.83;;;;;;;;;;5066212;28;20182;-43
2021/01/18 11:14:44;;;;;;;30.83;24.33;;;;;;;;;;5069381;28;20655;-43
2021/01/18 11:17:09;;;;;;;35.30;25.27;;;;;;;;;;5062122;28;20180;-43
2021/01/18 11:19:35;;;;;;;29.83;23.40;;;;;;;;;;5068933;28;20803;-43
2021/01/18 11:22:00;;;;;;;30.40;23.77;;;;;;;;;;5067736;28;20216;-43
2021/01/18 11:24:25;;;;;;;32.53;23.87;;;;;;;;;;5067873;28;20247;-43
2021/01/18 11:26:51;;;;;;;31.42;24.02;;;;;;;;;;5068194;28;20181;-43
2021/01/18 11:29:17;;;;;;;29.57;21.83;;;;;;;;;;5069540;28;20227;-44
2021/01/18 11:31:46;;;;;;;28.20;22.20;;;;;;;;;;5067245;28;20271;-43
2021/01/18 11:34:11;;;;;;;30.80;22.70;;;;;;;;;;5069462;28;20295;-43
2021/01/18 11:36:38;;;;;;;30.40;22.87;;;;;;;;;;5066586;28;20804;-43
2021/01/18 11:39:04;;;;;;;29.40;23.23;;;;;;;;;;5069431;28;20600;-43
2021/01/18 11:41:29;;;;;;;30.20;24.40;;;;;;;;;;5059273;28;20639;-43
2021/01/18 11:43:54;;;;;;;33.70;24.93;;;;;;;;;;5062352;28;20191;-43
2021/01/18 11:46:20;;;;;;;30.52;25.75;;;;;;;;;;5069123;28;20196;-43
2021/01/18 11:48:45;;;;;;;28.07;24.63;;;;;;;;;;5068666;28;20199;-42
2021/01/18 11:51:10;;;;;;;34.63;27.57;;;;;;;;;;5058861;28;20274;-43
2021/01/18 11:53:36;;;;;;;33.60;25.10;;;;;;;;;;5068319;28;20186;-43
2021/01/18 11:56:01;;;;;;;32.43;25.33;;;;;;;;;;5069345;28;20168;-43
2021/01/18 11:58:26;;;;;;;32.42;25.35;;;;;;;;;;5068579;28;20185;-42
2021/01/18 12:00:51;;;;;;;32.65;25.70;;;;;;;;;;5070844;28;20178;-43
2021/01/18 12:03:17;;;;;;;30.93;23.70;;;;;;;;;;5068546;28;20616;-42
2021/01/18 12:05:42;;;;;;;33.43;25.83;;;;;;;;;;5068189;28;20197;-42
2021/01/18 12:08:07;;;;;;;32.75;24.77;;;;;;;;;;5069040;28;20185;-43
2021/01/18 12:10:35;;;;;;;32.30;24.80;;;;;;;;;;5062418;28;20185;-43
2021/01/18 12:13:00;;;;;;;32.50;25.67;;;;;;;;;;5060751;28;20180;-43
2021/01/18 12:15:25;;;;;;;32.87;24.90;;;;;;;;;;5065446;28;20613;-43
2021/01/18 12:17:50;;;;;;;38.00;27.50;;;;;;;;;;5062883;28;20186;-43
2021/01/18 12:20:17;;;;;;;34.97;26.60;;;;;;;;;;5058102;28;21048;-44
2021/01/18 12:22:44;;;;;;;37.17;27.50;;;;;;;;;;5060640;28;20207;-43
2021/01/18 12:25:09;;;;;;;35.30;26.77;;;;;;;;;;5067341;28;20633;-43
2021/01/18 12:27:34;;;;;;;33.80;26.83;;;;;;;;;;5064328;28;20602;-42
2021/01/18 12:30:00;;;;;;;32.83;26.70;;;;;;;;;;5061260;28;20669;-43
2021/01/18 12:32:25;;;;;;;33.33;26.07;;;;;;;;;;5060902;28;20182;-43
2021/01/18 12:34:50;;;;;;;31.37;25.07;;;;;;;;;;5067273;28;20192;-43
2021/01/18 12:37:16;;;;;;;32.13;25.33;;;;;;;;;;5066171;28;20533;-43
2021/01/18 12:39:41;;;;;;;32.67;27.40;;;;;;;;;;5068865;28;20185;-43
2021/01/18 12:42:06;;;;;;;36.83;27.20;;;;;;;;;;5062847;28;20697;-43
2021/01/18 12:44:31;;;;;;;30.20;25.30;;;;;;;;;;5070085;28;20214;-43
2021/01/18 12:47:00;;;;;;;32.63;25.80;;;;;;;;;;5070429;28;20744;-43
2021/01/18 12:49:25;;;;;;;32.73;25.07;;;;;;;;;;5071567;28;20190;-43
2021/01/18 12:51:51;;;;;;;32.63;26.00;;;;;;;;;;5068319;28;20707;-43
2021/01/18 12:54:16;;;;;;;34.17;27.00;;;;;;;;;;5068234;28;20655;-43
2021/01/18 12:56:41;;;;;;;36.55;27.70;;;;;;;;;;5069567;28;20208;-43
2021/01/18 12:59:06;;;;;;;33.90;26.87;;;;;;;;;;5054642;28;20193;-42
2021/01/18 13:01:33;;;;;;;33.30;29.40;;;;;;;;;;5069255;28;20284;-42
2021/01/18 13:03:59;;;;;;;35.20;28.50;;;;;;;;;;5066079;28;20264;-42
2021/01/18 13:06:50;;;;;;;34.90;27.40;;;;;;;;;;5070895;28;20697;-41
2021/01/18 13:09:17;;;;;;;34.33;25.03;;;;;;;;;;5065526;28;20645;-42
2021/01/18 13:11:49;;;;;;;33.50;26.73;;;;;;;;;;5070154;28;20938;-43
2021/01/18 13:14:15;;;;;;;33.17;26.20;;;;;;;;;;5072076;28;20743;-43
2021/01/18 13:16:40;;;;;;;32.60;25.10;;;;;;;;;;5071276;28;20685;-43
2021/01/18 13:19:05;;;;;;;33.03;26.53;;;;;;;;;;5071309;28;21015;-43
2021/01/18 13:21:30;;;;;;;29.88;25.08;;;;;;;;;;5070327;28;20221;-43
2021/01/18 13:23:55;;;;;;;33.40;27.73;;;;;;;;;;5068126;28;20545;-43
2021/01/18 13:26:20;;;;;;;38.90;28.33;;;;;;;;;;5067051;28;20220;-43
2021/01/18 13:28:46;;;;;;;33.77;28.73;;;;;;;;;;5071992;28;20265;-43
2021/01/18 13:31:11;;;;;;;40.50;29.53;;;;;;;;;;5070448;28;20208;-43
2021/01/18 13:33:42;;;;;;;34.87;28.00;;;;;;;;;;5072498;28;20605;-43
2021/01/18 13:36:09;;;;;;;31.57;25.97;;;;;;;;;;5070416;28;20259;-43
2021/01/18 13:38:34;;;;;;;33.60;28.20;;;;;;;;;;5071915;28;20611;-43
2021/01/18 13:40:59;;;;;;;33.22;26.40;;;;;;;;;;5069097;28;20620;-43
2021/01/18 13:43:25;;;;;;;38.17;27.80;;;;;;;;;;5070631;28;20184;-43
2021/01/18 13:45:50;;;;;;;41.93;30.83;;;;;;;;;;5067310;28;20314;-43
2021/01/18 13:48:15;;;;;;;36.10;29.50;;;;;;;;;;5071049;28;20237;-43
2021/01/18 13:50:40;;;;;;;36.10;27.83;;;;;;;;;;5067806;28;20719;-43
2021/01/18 13:53:06;;;;;;;34.37;26.53;;;;;;;;;;5067022;28;20345;-43
2021/01/18 13:55:31;;;;;;;33.73;27.30;;;;;;;;;;5066807;28;20688;-44
2021/01/18 13:57:56;;;;;;;34.15;27.35;;;;;;;;;;5074005;28;20191;-44
2021/01/18 14:00:21;;;;;;;33.78;27.13;;;;;;;;;;5063845;28;20191;-44
2021/01/18 14:02:46;;;;;;;33.03;27.23;;;;;;;;;;5069259;28;20564;-44
2021/01/18 14:05:12;;;;;;;40.03;29.30;;;;;;;;;;5071175;28;20198;-43
2021/01/18 14:07:37;;;;;;;34.70;26.93;;;;;;;;;;5078799;28;20251;-44
2021/01/18 14:10:03;;;;;;;36.00;27.77;;;;;;;;;;5068711;28;20177;-43
2021/01/18 14:12:28;;;;;;;31.53;26.63;;;;;;;;;;5069583;28;20264;-42
2021/01/18 14:14:53;;;;;;;33.23;26.87;;;;;;;;;;5068911;28;20693;-43
2021/01/18 14:17:22;;;;;;;34.90;26.40;;;;;;;;;;5069305;28;20185;-44
2021/01/18 14:19:47;;;;;;;33.50;25.90;;;;;;;;;;5071416;28;20241;-43